Hovedside
METAR-TAF:

METAR-TAF

Lufthavner :

N'Djamena internasjonale lufthavn

N'Djamena, Tsjad

breddegrad: 12-08N, lengdegrad: 015-02E, høyde over havet: 295 m

Gjeldene værobservasjon

Denne rapporten ble laget for 35 minutter siden, klokken 06:00 UTC
Vind 5 kt fra Nord
Temperatur 16°C
Luftfuktighet 31%
Trykk 1016 hPa
Sikt: 6000 m

METAR: FTTJ 120600Z 01005KT 6000 NSC 16/M01 Q1016 NOSIG

Tid: 07:35 (06:35 UTC)

Varsel

Denne rapporten ble laget for 1 time og 35 minutter siden, klokken 05:00 UTC
Varsel gyldig fra 12. klokken 06 UTC til 13. klokken 12 UTC
Vind 8 kt fra Nord
Sikt: 8000 m

TAF: FTTJ 120500Z 1206/1312 01008KT 8000 NSC

Værobservasjoner og værvarsel for over 4000 flyplasser (METAR- og TAF-rapporter).

Tilgjengelige stasjoner er representert av de røde og gule prikkene på kartet.

Hold musepekeren over prikken for å se navnet på stasjonen.

Klikk så for å se værobservasjoner og -varsler.

For å forandre kartet kan du klikke på den grønne knappen med svart kryss for å zoome inn, på den grønne knappen med strek for å zoome ut, eller på de grønne pilene for å se tilstøtende kart.


METAR-TAF: